sensor_id;sensor_type;location;lat;lon;timestamp;pressure;altitude;pressure_sealevel;temperature;humidity
10638;BME280;47007;49.252;8.904;2023-04-07T00:00:19;99816.53;;;8.42;100.00
10638;BME280;47007;49.252;8.904;2023-04-07T00:01:00;99831.22;;;8.53;100.00
10638;BME280;47007;49.252;8.904;2023-04-07T00:01:42;99831.84;;;8.55;100.00
10638;BME280;47007;49.252;8.904;2023-04-07T00:02:24;99829.22;;;8.55;100.00
10638;BME280;47007;49.252;8.904;2023-04-07T00:03:07;99828.41;;;8.54;100.00
10638;BME280;47007;49.252;8.904;2023-04-07T00:03:49;99821.66;;;8.44;100.00
10638;BME280;47007;49.252;8.904;2023-04-07T00:04:31;99834.88;;;8.44;100.00
10638;BME280;47007;49.252;8.904;2023-04-07T00:05:14;99829.13;;;8.40;100.00
10638;BME280;47007;49.252;8.904;2023-04-07T00:05:55;99823.84;;;8.32;100.00
10638;BME280;47007;49.252;8.904;2023-04-07T00:06:37;99832.88;;;8.29;100.00
10638;BME280;47007;49.252;8.904;2023-04-07T00:07:19;99781.81;;;7.98;100.00
10638;BME280;47007;49.252;8.904;2023-04-07T00:08:00;99825.94;;;8.28;100.00
10638;BME280;47007;49.252;8.904;2023-04-07T00:08:42;99831.44;;;8.27;100.00
10638;BME280;47007;49.252;8.904;2023-04-07T00:09:24;99828.59;;;8.28;100.00
10638;BME280;47007;49.252;8.904;2023-04-07T00:10:06;99799.59;;;8.12;100.00
10638;BME280;47007;49.252;8.904;2023-04-07T00:10:48;99825.50;;;8.33;100.00
10638;BME280;47007;49.252;8.904;2023-04-07T00:11:30;99825.31;;;8.35;100.00
10638;BME280;47007;49.252;8.904;2023-04-07T00:12:11;99733.50;;;7.73;100.00
10638;BME280;47007;49.252;8.904;2023-04-07T00:12:53;99809.31;;;8.20;100.00
10638;BME280;47007;49.252;8.904;2023-04-07T00:13:35;99820.38;;;8.32;100.00
10638;BME280;47007;49.252;8.904;2023-04-07T00:14:16;99835.34;;;8.31;100.00
10638;BME280;47007;49.252;8.904;2023-04-07T00:14:58;99827.59;;;8.29;100.00
10638;BME280;47007;49.252;8.904;2023-04-07T00:15:40;99813.94;;;8.26;100.00
10638;BME280;47007;49.252;8.904;2023-04-07T00:16:21;99825.16;;;8.28;100.00
10638;BME280;47007;49.252;8.904;2023-04-07T00:17:03;99823.66;;;8.25;100.00
10638;BME280;47007;49.252;8.904;2023-04-07T00:17:45;99823.16;;;8.22;100.00
10638;BME280;47007;49.252;8.904;2023-04-07T00:18:26;99825.16;;;8.20;100.00
10638;BME280;47007;49.252;8.904;2023-04-07T00:19:08;99747.03;;;7.78;100.00
10638;BME280;47007;49.252;8.904;2023-04-07T00:19:50;99799.78;;;8.03;100.00
10638;BME280;47007;49.252;8.904;2023-04-07T00:20:31;99801.59;;;8.02;100.00
10638;BME280;47007;49.252;8.904;2023-04-07T00:21:13;99820.06;;;8.02;100.00
10638;BME280;47007;49.252;8.904;2023-04-07T00:21:54;99815.78;;;8.01;100.00
10638;BME280;47007;49.252;8.904;2023-04-07T00:22:36;99812.78;;;8.04;100.00
10638;BME280;47007;49.252;8.904;2023-04-07T00:23:18;99812.31;;;8.09;100.00
10638;BME280;47007;49.252;8.904;2023-04-07T00:24:00;99811.31;;;8.10;100.00
10638;BME280;47007;49.252;8.904;2023-04-07T00:24:41;99812.47;;;8.07;100.00
10638;BME280;47007;49.252;8.904;2023-04-07T00:25:23;99823.69;;;8.01;100.00
10638;BME280;47007;49.252;8.904;2023-04-07T00:26:05;99810.16;;;7.96;100.00
10638;BME280;47007;49.252;8.904;2023-04-07T00:26:47;99810.50;;;7.93;100.00
10638;BME280;47007;49.252;8.904;2023-04-07T00:27:28;99809.19;;;7.89;100.00
10638;BME280;47007;49.252;8.904;2023-04-07T00:28:10;99808.03;;;7.83;100.00
10638;BME280;47007;49.252;8.904;2023-04-07T00:28:52;99758.75;;;7.51;100.00
10638;BME280;47007;49.252;8.904;2023-04-07T00:29:34;99806.22;;;7.84;100.00
10638;BME280;47007;49.252;8.904;2023-04-07T00:30:15;99823.84;;;7.91;100.00
10638;BME280;47007;49.252;8.904;2023-04-07T00:30:58;99805.72;;;7.88;100.00
10638;BME280;47007;49.252;8.904;2023-04-07T00:31:40;99810.50;;;7.93;100.00
10638;BME280;47007;49.252;8.904;2023-04-07T00:32:21;99811.16;;;7.95;100.00
10638;BME280;47007;49.252;8.904;2023-04-07T00:33:03;99778.50;;;7.80;100.00
10638;BME280;47007;49.252;8.904;2023-04-07T00:33:50;99764.69;;;7.78;100.00
10638;BME280;47007;49.252;8.904;2023-04-07T00:34:31;99815.44;;;8.12;100.00
10638;BME280;47007;49.252;8.904;2023-04-07T00:35:13;99813.78;;;8.11;100.00
10638;BME280;47007;49.252;8.904;2023-04-07T00:35:55;99824.50;;;8.10;100.00
10638;BME280;47007;49.252;8.904;2023-04-07T00:36:39;99818.25;;;8.11;100.00
10638;BME280;47007;49.252;8.904;2023-04-07T00:37:20;99815.09;;;8.07;100.00
10638;BME280;47007;49.252;8.904;2023-04-07T00:38:03;99806.69;;;8.12;100.00
10638;BME280;47007;49.252;8.904;2023-04-07T00:38:45;99731.53;;;7.67;100.00
10638;BME280;47007;49.252;8.904;2023-04-07T00:39:27;99816.06;;;8.22;100.00
10638;BME280;47007;49.252;8.904;2023-04-07T00:40:09;99817.56;;;8.25;100.00
10638;BME280;47007;49.252;8.904;2023-04-07T00:40:56;99803.19;;;8.19;100.00
10638;BME280;47007;49.252;8.904;2023-04-07T00:41:38;99817.03;;;8.29;100.00
10638;BME280;47007;49.252;8.904;2023-04-07T00:42:20;99812.59;;;8.30;100.00
10638;BME280;47007;49.252;8.904;2023-04-07T00:43:01;99801.06;;;8.23;100.00
10638;BME280;47007;49.252;8.904;2023-04-07T00:43:43;99801.72;;;8.33;100.00
10638;BME280;47007;49.252;8.904;2023-04-07T00:44:26;99781.41;;;8.25;100.00
10638;BME280;47007;49.252;8.904;2023-04-07T00:45:08;99795.28;;;8.27;100.00
10638;BME280;47007;49.252;8.904;2023-04-07T00:45:52;99783.91;;;8.27;100.00
10638;BME280;47007;49.252;8.904;2023-04-07T00:46:34;99795.41;;;8.42;100.00
10638;BME280;47007;49.252;8.904;2023-04-07T00:47:16;99783.91;;;8.35;100.00
10638;BME280;47007;49.252;8.904;2023-04-07T00:47:58;99788.34;;;8.35;100.00
10638;BME280;47007;49.252;8.904;2023-04-07T00:48:40;99795.25;;;8.44;100.00
10638;BME280;47007;49.252;8.904;2023-04-07T00:49:26;99790.63;;;8.46;100.00
10638;BME280;47007;49.252;8.904;2023-04-07T00:50:11;99729.81;;;8.07;100.00
10638;BME280;47007;49.252;8.904;2023-04-07T00:50:53;99790.28;;;8.49;100.00
10638;BME280;47007;49.252;8.904;2023-04-07T00:51:35;99788.31;;;8.51;100.00
10638;BME280;47007;49.252;8.904;2023-04-07T00:52:18;99789.59;;;8.55;100.00
10638;BME280;47007;49.252;8.904;2023-04-07T00:52:59;99783.16;;;8.57;100.00
10638;BME280;47007;49.252;8.904;2023-04-07T00:53:42;99784.31;;;8.55;100.00
10638;BME280;47007;49.252;8.904;2023-04-07T00:54:24;99787.94;;;8.54;100.00
10638;BME280;47007;49.252;8.904;2023-04-07T00:55:06;99790.13;;;8.50;100.00
10638;BME280;47007;49.252;8.904;2023-04-07T00:55:48;99774.78;;;8.46;100.00
10638;BME280;47007;49.252;8.904;2023-04-07T00:56:31;99773.78;;;8.47;100.00
10638;BME280;47007;49.252;8.904;2023-04-07T00:57:12;99763.72;;;8.42;100.00
10638;BME280;47007;49.252;8.904;2023-04-07T00:57:54;99776.56;;;8.53;100.00
10638;BME280;47007;49.252;8.904;2023-04-07T00:58:38;99782.50;;;8.55;100.00
10638;BME280;47007;49.252;8.904;2023-04-07T00:59:21;99776.22;;;8.56;100.00
10638;BME280;47007;49.252;8.904;2023-04-07T01:00:03;99776.22;;;8.56;100.00
10638;BME280;47007;49.252;8.904;2023-04-07T01:00:50;99781.50;;;8.56;100.00
10638;BME280;47007;49.252;8.904;2023-04-07T01:01:43;99775.41;;;8.56;100.00
10638;BME280;47007;49.252;8.904;2023-04-07T01:03:39;99769.81;;;8.51;100.00
10638;BME280;47007;49.252;8.904;2023-04-07T01:04:38;99749.72;;;8.34;100.00
10638;BME280;47007;49.252;8.904;2023-04-07T01:06:16;99766.84;;;8.46;100.00
10638;BME280;47007;49.252;8.904;2023-04-07T01:07:04;99716.91;;;8.20;100.00
10638;BME280;47007;49.252;8.904;2023-04-07T01:08:15;99760.25;;;8.42;100.00
10638;BME280;47007;49.252;8.904;2023-04-07T01:09:29;99760.28;;;8.34;100.00
10638;BME280;47007;49.252;8.904;2023-04-07T01:10:20;99754.19;;;8.25;100.00
10638;BME280;47007;49.252;8.904;2023-04-07T01:11:31;99761.28;;;8.24;100.00
10638;BME280;47007;49.252;8.904;2023-04-07T01:13:00;99735.91;;;8.15;100.00
10638;BME280;47007;49.252;8.904;2023-04-07T01:13:51;99735.22;;;8.21;100.00
10638;BME280;47007;49.252;8.904;2023-04-07T01:14:52;99727.13;;;8.23;100.00
10638;BME280;47007;49.252;8.904;2023-04-07T01:15:49;99743.94;;;8.30;100.00
10638;BME280;47007;49.252;8.904;2023-04-07T01:16:38;99739.00;;;8.27;100.00
10638;BME280;47007;49.252;8.904;2023-04-07T01:17:22;99740.81;;;8.26;100.00
10638;BME280;47007;49.252;8.904;2023-04-07T01:18:11;99742.47;;;8.27;100.00
10638;BME280;47007;49.252;8.904;2023-04-07T01:18:55;99743.09;;;8.29;100.00
10638;BME280;47007;49.252;8.904;2023-04-07T01:20:01;99736.16;;;8.28;100.00
10638;BME280;47007;49.252;8.904;2023-04-07T01:20:51;99736.16;;;8.28;100.00
10638;BME280;47007;49.252;8.904;2023-04-07T01:21:37;99742.09;;;8.30;100.00
10638;BME280;47007;49.252;8.904;2023-04-07T01:22:26;99741.16;;;8.32;100.00
10638;BME280;47007;49.252;8.904;2023-04-07T01:23:17;99730.59;;;8.23;100.00
10638;BME280;47007;49.252;8.904;2023-04-07T01:26:18;99736.53;;;8.34;100.00
10638;BME280;47007;49.252;8.904;2023-04-07T01:27:14;99740.16;;;8.33;100.00
10638;BME280;47007;49.252;8.904;2023-04-07T01:29:33;99733.22;;;8.32;100.00
10638;BME280;47007;49.252;8.904;2023-04-07T01:30:16;99724.66;;;8.21;100.00
10638;BME280;47007;49.252;8.904;2023-04-07T01:30:59;99738.50;;;8.32;100.00
10638;BME280;47007;49.252;8.904;2023-04-07T01:31:42;99736.16;;;8.28;100.00
10638;BME280;47007;49.252;8.904;2023-04-07T01:32:26;99728.63;;;8.17;100.00
10638;BME280;47007;49.252;8.904;2023-04-07T01:33:09;99733.22;;;8.23;100.00
10638;BME280;47007;49.252;8.904;2023-04-07T01:33:54;99725.34;;;8.15;100.00
10638;BME280;47007;49.252;8.904;2023-04-07T01:34:37;99728.81;;;8.16;100.00
10638;BME280;47007;49.252;8.904;2023-04-07T01:35:19;99735.88;;;8.23;100.00
10638;BME280;47007;49.252;8.904;2023-04-07T01:36:04;99709.84;;;8.12;100.00
10638;BME280;47007;49.252;8.904;2023-04-07T01:36:48;99721.53;;;8.18;100.00
10638;BME280;47007;49.252;8.904;2023-04-07T01:37:31;99710.84;;;8.11;100.00
10638;BME280;47007;49.252;8.904;2023-04-07T01:38:13;99719.88;;;8.25;100.00
10638;BME280;47007;49.252;8.904;2023-04-07T01:38:57;99738.34;;;8.33;100.00
10638;BME280;47007;49.252;8.904;2023-04-07T01:39:39;99712.66;;;8.11;100.00
10638;BME280;47007;49.252;8.904;2023-04-07T01:40:21;99717.06;;;8.18;100.00
10638;BME280;47007;49.252;8.904;2023-04-07T01:41:04;99738.34;;;8.33;100.00
10638;BME280;47007;49.252;8.904;2023-04-07T01:41:47;99731.91;;;8.27;100.00
10638;BME280;47007;49.252;8.904;2023-04-07T01:42:30;99732.06;;;8.26;100.00
10638;BME280;47007;49.252;8.904;2023-04-07T01:43:13;99742.47;;;8.27;100.00
10638;BME280;47007;49.252;8.904;2023-04-07T01:43:56;99729.09;;;8.21;100.00
10638;BME280;47007;49.252;8.904;2023-04-07T01:44:39;99739.84;;;8.27;100.00
10638;BME280;47007;49.252;8.904;2023-04-07T01:45:22;99729.59;;;8.24;100.00
10638;BME280;47007;49.252;8.904;2023-04-07T01:46:04;99733.72;;;8.27;100.00
10638;BME280;47007;49.252;8.904;2023-04-07T01:46:47;99724.66;;;8.21;100.00
10638;BME280;47007;49.252;8.904;2023-04-07T01:47:32;99722.00;;;8.21;100.00
10638;BME280;47007;49.252;8.904;2023-04-07T01:48:15;99724.31;;;8.24;100.00
10638;BME280;47007;49.252;8.904;2023-04-07T01:48:57;99729.25;;;8.36;100.00
10638;BME280;47007;49.252;8.904;2023-04-07T01:49:39;99709.31;;;8.25;100.00
10638;BME280;47007;49.252;8.904;2023-04-07T01:50:22;99706.00;;;8.23;100.00
10638;BME280;47007;49.252;8.904;2023-04-07T01:51:05;99728.28;;;8.37;100.00
10638;BME280;47007;49.252;8.904;2023-04-07T01:51:48;99715.41;;;8.25;100.00
10638;BME280;47007;49.252;8.904;2023-04-07T01:52:34;99727.78;;;8.33;100.00
10638;BME280;47007;49.252;8.904;2023-04-07T01:53:17;99714.41;;;8.26;100.00
10638;BME280;47007;49.252;8.904;2023-04-07T01:54:00;99726.25;;;8.30;100.00
10638;BME280;47007;49.252;8.904;2023-04-07T01:54:42;99729.06;;;8.29;100.00
10638;BME280;47007;49.252;8.904;2023-04-07T01:55:24;99710.97;;;8.18;100.00
10638;BME280;47007;49.252;8.904;2023-04-07T01:56:14;99714.13;;;8.13;100.00
10638;BME280;47007;49.252;8.904;2023-04-07T01:57:00;99729.78;;;8.23;100.00
10638;BME280;47007;49.252;8.904;2023-04-07T01:57:42;99721.69;;;8.16;100.00
10638;BME280;47007;49.252;8.904;2023-04-07T01:58:28;99707.22;;;8.04;100.00
10638;BME280;47007;49.252;8.904;2023-04-07T01:59:10;99716.78;;;8.13;100.00
10638;BME280;47007;49.252;8.904;2023-04-07T01:59:52;99724.03;;;8.11;100.00
10638;BME280;47007;49.252;8.904;2023-04-07T02:00:38;99720.06;;;8.15;100.00
10638;BME280;47007;49.252;8.904;2023-04-07T02:01:25;99727.66;;;8.10;100.00
10638;BME280;47007;49.252;8.904;2023-04-07T02:02:07;99706.25;;;7.97;100.00
10638;BME280;47007;49.252;8.904;2023-04-07T02:02:52;99728.97;;;8.06;100.00
10638;BME280;47007;49.252;8.904;2023-04-07T02:04:40;99711.56;;;7.89;100.00
10638;BME280;47007;49.252;8.904;2023-04-07T02:05:26;99724.72;;;7.97;100.00
10638;BME280;47007;49.252;8.904;2023-04-07T02:06:12;99723.25;;;7.94;100.00
10638;BME280;47007;49.252;8.904;2023-04-07T02:07:00;99706.13;;;7.82;100.00
10638;BME280;47007;49.252;8.904;2023-04-07T02:07:52;99724.41;;;7.92;100.00
10638;BME280;47007;49.252;8.904;2023-04-07T02:08:41;99689.50;;;7.74;100.00
10638;BME280;47007;49.252;8.904;2023-04-07T02:09:28;99725.38;;;7.99;100.00
10638;BME280;47007;49.252;8.904;2023-04-07T02:10:12;99719.41;;;8.05;100.00
10638;BME280;47007;49.252;8.904;2023-04-07T02:10:56;99723.38;;;8.09;100.00
10638;BME280;47007;49.252;8.904;2023-04-07T02:11:43;99720.06;;;8.15;100.00
10638;BME280;47007;49.252;8.904;2023-04-07T02:12:27;99722.00;;;8.21;100.00
10638;BME280;47007;49.252;8.904;2023-04-07T02:13:20;99720.84;;;8.24;100.00
10638;BME280;47007;49.252;8.904;2023-04-07T02:14:05;99717.22;;;8.25;100.00
10638;BME280;47007;49.252;8.904;2023-04-07T02:15:00;99717.06;;;8.26;100.00
10638;BME280;47007;49.252;8.904;2023-04-07T02:15:43;99716.91;;;8.28;100.00
10638;BME280;47007;49.252;8.904;2023-04-07T02:16:28;99716.91;;;8.28;100.00
10638;BME280;47007;49.252;8.904;2023-04-07T02:17:12;99711.63;;;8.28;100.00
10638;BME280;47007;49.252;8.904;2023-04-07T02:17:55;99715.03;;;8.28;100.00
10638;BME280;47007;49.252;8.904;2023-04-07T02:18:37;99712.41;;;8.28;100.00
10638;BME280;47007;49.252;8.904;2023-04-07T02:19:19;99712.59;;;8.27;100.00
10638;BME280;47007;49.252;8.904;2023-04-07T02:20:02;99706.34;;;8.28;100.00
10638;BME280;47007;49.252;8.904;2023-04-07T02:20:44;99716.06;;;8.27;100.00
10638;BME280;47007;49.252;8.904;2023-04-07T02:21:27;99711.13;;;8.24;100.00
10638;BME280;47007;49.252;8.904;2023-04-07T02:22:11;99691.19;;;8.14;100.00
10638;BME280;47007;49.252;8.904;2023-04-07T02:22:53;99706.34;;;8.28;100.00
10638;BME280;47007;49.252;8.904;2023-04-07T02:23:36;99693.66;;;8.15;100.00
10638;BME280;47007;49.252;8.904;2023-04-07T02:24:19;99703.19;;;8.24;100.00
10638;BME280;47007;49.252;8.904;2023-04-07T02:25:02;99686.38;;;8.17;100.00
10638;BME280;47007;49.252;8.904;2023-04-07T02:25:43;99713.88;;;8.31;100.00
10638;BME280;47007;49.252;8.904;2023-04-07T02:26:25;99705.81;;;8.33;100.00
10638;BME280;47007;49.252;8.904;2023-04-07T02:27:07;99701.53;;;8.32;100.00
10638;BME280;47007;49.252;8.904;2023-04-07T02:27:48;99710.59;;;8.37;100.00
10638;BME280;47007;49.252;8.904;2023-04-07T02:28:32;99708.78;;;8.38;100.00
10638;BME280;47007;49.252;8.904;2023-04-07T02:29:14;99710.78;;;8.36;100.00
10638;BME280;47007;49.252;8.904;2023-04-07T02:29:57;99710.13;;;8.34;100.00
10638;BME280;47007;49.252;8.904;2023-04-07T02:30:39;99715.41;;;8.34;100.00
10638;BME280;47007;49.252;8.904;2023-04-07T02:31:20;99704.00;;;8.33;100.00
10638;BME280;47007;49.252;8.904;2023-04-07T02:32:02;99707.47;;;8.34;100.00
10638;BME280;47007;49.252;8.904;2023-04-07T02:32:44;99697.22;;;8.30;100.00
10638;BME280;47007;49.252;8.904;2023-04-07T02:33:27;99711.59;;;8.36;100.00
10638;BME280;47007;49.252;8.904;2023-04-07T02:34:09;99694.94;;;8.27;100.00
10638;BME280;47007;49.252;8.904;2023-04-07T02:34:52;99711.44;;;8.38;100.00
10638;BME280;47007;49.252;8.904;2023-04-07T02:35:34;99706.97;;;8.38;100.00
10638;BME280;47007;49.252;8.904;2023-04-07T02:36:16;99702.53;;;8.39;100.00
10638;BME280;47007;49.252;8.904;2023-04-07T02:36:57;99710.44;;;8.39;100.00
10638;BME280;47007;49.252;8.904;2023-04-07T02:37:41;99707.16;;;8.37;100.00
10638;BME280;47007;49.252;8.904;2023-04-07T02:38:23;99673.72;;;8.13;100.00
10638;BME280;47007;49.252;8.904;2023-04-07T02:39:05;99711.75;;;8.35;100.00
10638;BME280;47007;49.252;8.904;2023-04-07T02:39:46;99680.75;;;8.20;100.00
10638;BME280;47007;49.252;8.904;2023-04-07T02:40:28;99696.25;;;8.32;100.00
10638;BME280;47007;49.252;8.904;2023-04-07T02:41:10;99681.75;;;8.19;100.00
10638;BME280;47007;49.252;8.904;2023-04-07T02:41:51;99704.66;;;8.35;100.00
10638;BME280;47007;49.252;8.904;2023-04-07T02:42:33;99701.88;;;8.37;100.00
10638;BME280;47007;49.252;8.904;2023-04-07T02:43:15;99647.97;;;8.07;100.00
10638;BME280;47007;49.252;8.904;2023-04-07T02:43:58;99701.03;;;8.36;100.00
10638;BME280;47007;49.252;8.904;2023-04-07T02:44:39;99705.50;;;8.36;100.00
10638;BME280;47007;49.252;8.904;2023-04-07T02:45:23;99675.19;;;8.15;100.00
10638;BME280;47007;49.252;8.904;2023-04-07T02:46:04;99693.91;;;8.28;100.00
10638;BME280;47007;49.252;8.904;2023-04-07T02:46:46;99700.53;;;8.33;100.00
10638;BME280;47007;49.252;8.904;2023-04-07T02:47:28;99695.25;;;8.33;100.00
10638;BME280;47007;49.252;8.904;2023-04-07T02:48:09;99698.72;;;8.33;100.00
10638;BME280;47007;49.252;8.904;2023-04-07T02:48:51;99695.25;;;8.33;100.00
10638;BME280;47007;49.252;8.904;2023-04-07T02:49:32;99698.03;;;8.31;100.00
10638;BME280;47007;49.252;8.904;2023-04-07T02:50:14;99699.72;;;8.32;100.00
10638;BME280;47007;49.252;8.904;2023-04-07T02:50:56;99695.25;;;8.33;100.00
10638;BME280;47007;49.252;8.904;2023-04-07T02:51:38;99657.72;;;8.06;100.00
10638;BME280;47007;49.252;8.904;2023-04-07T02:52:19;99691.28;;;8.28;100.00
10638;BME280;47007;49.252;8.904;2023-04-07T02:53:01;99693.28;;;8.26;100.00
10638;BME280;47007;49.252;8.904;2023-04-07T02:53:42;99682.41;;;8.21;100.00
10638;BME280;47007;49.252;8.904;2023-04-07T02:54:25;99692.81;;;8.23;100.00
10638;BME280;47007;49.252;8.904;2023-04-07T02:55:07;99691.31;;;8.20;100.00
10638;BME280;47007;49.252;8.904;2023-04-07T02:55:49;99687.03;;;8.19;100.00
10638;BME280;47007;49.252;8.904;2023-04-07T02:56:31;99664.97;;;8.04;100.00
10638;BME280;47007;49.252;8.904;2023-04-07T02:57:13;99669.91;;;8.07;100.00
10638;BME280;47007;49.252;8.904;2023-04-07T02:57:54;99677.03;;;8.07;100.00
10638;BME280;47007;49.252;8.904;2023-04-07T02:58:46;99664.84;;;7.98;100.00
10638;BME280;47007;49.252;8.904;2023-04-07T02:59:29;99681.19;;;8.01;100.00
10638;BME280;47007;49.252;8.904;2023-04-07T03:00:11;99665.69;;;7.98;100.00
10638;BME280;47007;49.252;8.904;2023-04-07T03:01:09;99695.66;;;8.13;100.00
10638;BME280;47007;49.252;8.904;2023-04-07T03:01:51;99678.81;;;8.14;100.00
10638;BME280;47007;49.252;8.904;2023-04-07T03:02:35;99685.25;;;8.12;100.00
10638;BME280;47007;49.252;8.904;2023-04-07T03:03:17;99688.19;;;8.17;100.00
10638;BME280;47007;49.252;8.904;2023-04-07T03:04:11;99679.00;;;8.13;100.00
10638;BME280;47007;49.252;8.904;2023-04-07T03:04:52;99682.63;;;8.12;100.00
10638;BME280;47007;49.252;8.904;2023-04-07T03:05:37;99686.41;;;8.09;100.00
10638;BME280;47007;49.252;8.904;2023-04-07T03:06:19;99683.28;;;8.06;100.00
10638;BME280;47007;49.252;8.904;2023-04-07T03:07:27;99614.31;;;7.70;100.00
10638;BME280;47007;49.252;8.904;2023-04-07T03:08:10;99674.03;;;8.10;100.00
10638;BME280;47007;49.252;8.904;2023-04-07T03:08:53;99672.22;;;8.10;100.00
10638;BME280;47007;49.252;8.904;2023-04-07T03:09:35;99677.50;;;8.10;100.00
10638;BME280;47007;49.252;8.904;2023-04-07T03:10:17;99677.50;;;8.10;100.00
10638;BME280;47007;49.252;8.904;2023-04-07T03:10:58;99675.19;;;8.07;100.00
10638;BME280;47007;49.252;8.904;2023-04-07T03:11:43;99677.50;;;8.10;100.00
10638;BME280;47007;49.252;8.904;2023-04-07T03:12:24;99678.16;;;8.12;100.00
10638;BME280;47007;49.252;8.904;2023-04-07T03:13:06;99678.47;;;8.17;100.00
10638;BME280;47007;49.252;8.904;2023-04-07T03:13:49;99672.03;;;8.20;100.00
10638;BME280;47007;49.252;8.904;2023-04-07T03:14:31;99671.38;;;8.18;100.00
10638;BME280;47007;49.252;8.904;2023-04-07T03:15:14;99667.22;;;8.23;100.00
10638;BME280;47007;49.252;8.904;2023-04-07T03:16:00;99677.78;;;8.23;100.00
10638;BME280;47007;49.252;8.904;2023-04-07T03:16:47;99672.34;;;8.25;100.00
10638;BME280;47007;49.252;8.904;2023-04-07T03:17:30;99673.16;;;8.25;100.00
10638;BME280;47007;49.252;8.904;2023-04-07T03:18:12;99637.09;;;8.10;100.00
10638;BME280;47007;49.252;8.904;2023-04-07T03:18:55;99670.00;;;8.30;100.00
10638;BME280;47007;49.252;8.904;2023-04-07T03:19:37;99673.81;;;8.27;100.00
10638;BME280;47007;49.252;8.904;2023-04-07T03:20:19;99671.50;;;8.24;100.00
10638;BME280;47007;49.252;8.904;2023-04-07T03:21:00;99667.41;;;8.22;100.00
10638;BME280;47007;49.252;8.904;2023-04-07T03:21:42;99647.47;;;8.11;100.00
10638;BME280;47007;49.252;8.904;2023-04-07T03:22:24;99674.31;;;8.23;100.00
10638;BME280;47007;49.252;8.904;2023-04-07T03:23:07;99639.06;;;8.08;100.00
10638;BME280;47007;49.252;8.904;2023-04-07T03:23:49;99668.22;;;8.22;100.00
10638;BME280;47007;49.252;8.904;2023-04-07T03:24:32;99661.78;;;8.25;100.00
10638;BME280;47007;49.252;8.904;2023-04-07T03:25:13;99665.41;;;8.24;100.00
10638;BME280;47007;49.252;8.904;2023-04-07T03:25:56;99649.63;;;8.16;100.00
10638;BME280;47007;49.252;8.904;2023-04-07T03:26:42;99663.28;;;8.19;100.00
10638;BME280;47007;49.252;8.904;2023-04-07T03:27:32;99661.78;;;8.17;100.00
10638;BME280;47007;49.252;8.904;2023-04-07T03:28:14;99631.19;;;8.00;100.00
10638;BME280;47007;49.252;8.904;2023-04-07T03:28:56;99660.34;;;8.14;100.00
10638;BME280;47007;49.252;8.904;2023-04-07T03:29:38;99657.69;;;8.14;100.00
10638;BME280;47007;49.252;8.904;2023-04-07T03:30:22;99650.78;;;8.13;100.00
10638;BME280;47007;49.252;8.904;2023-04-07T03:31:04;99656.88;;;8.14;100.00
10638;BME280;47007;49.252;8.904;2023-04-07T03:31:46;99643.53;;;8.07;100.00
10638;BME280;47007;49.252;8.904;2023-04-07T03:32:30;99651.44;;;8.15;100.00
10638;BME280;47007;49.252;8.904;2023-04-07T03:33:12;99651.88;;;8.19;100.00
10638;BME280;47007;49.252;8.904;2023-04-07T03:33:53;99650.41;;;8.16;100.00
10638;BME280;47007;49.252;8.904;2023-04-07T03:34:36;99637.75;;;8.12;100.00
10638;BME280;47007;49.252;8.904;2023-04-07T03:35:17;99656.84;;;8.22;100.00
10638;BME280;47007;49.252;8.904;2023-04-07T03:35:59;99656.50;;;8.25;100.00
10638;BME280;47007;49.252;8.904;2023-04-07T03:36:41;99659.13;;;8.25;100.00
10638;BME280;47007;49.252;8.904;2023-04-07T03:37:23;99657.50;;;8.24;100.00
10638;BME280;47007;49.252;8.904;2023-04-07T03:38:05;99661.13;;;8.23;100.00
10638;BME280;47007;49.252;8.904;2023-04-07T03:38:47;99657.00;;;8.20;100.00
10638;BME280;47007;49.252;8.904;2023-04-07T03:39:30;99656.34;;;8.18;100.00
10638;BME280;47007;49.252;8.904;2023-04-07T03:40:14;99658.34;;;8.16;100.00
10638;BME280;47007;49.252;8.904;2023-04-07T03:40:56;99651.59;;;8.14;100.00
10638;BME280;47007;49.252;8.904;2023-04-07T03:41:38;99655.22;;;8.13;100.00
10638;BME280;47007;49.252;8.904;2023-04-07T03:42:20;99649.13;;;8.12;100.00
10638;BME280;47007;49.252;8.904;2023-04-07T03:43:03;99661.50;;;8.12;100.00
10638;BME280;47007;49.252;8.904;2023-04-07T03:43:45;99638.59;;;8.04;100.00
10638;BME280;47007;49.252;8.904;2023-04-07T03:44:28;99655.41;;;8.11;100.00
10638;BME280;47007;49.252;8.904;2023-04-07T03:45:09;99658.69;;;8.13;100.00
10638;BME280;47007;49.252;8.904;2023-04-07T03:45:56;99640.94;;;7.99;100.00
10638;BME280;47007;49.252;8.904;2023-04-07T03:46:39;99667.78;;;8.11;100.00
10638;BME280;47007;49.252;8.904;2023-04-07T03:47:21;99639.28;;;7.98;100.00
10638;BME280;47007;49.252;8.904;2023-04-07T03:48:09;99631.03;;;7.93;100.00
10638;BME280;47007;49.252;8.904;2023-04-07T03:49:01;99657.38;;;8.09;100.00
10638;BME280;47007;49.252;8.904;2023-04-07T03:49:45;99658.03;;;8.11;100.00
10638;BME280;47007;49.252;8.904;2023-04-07T03:50:26;99661.50;;;8.12;100.00
10638;BME280;47007;49.252;8.904;2023-04-07T03:51:19;99667.59;;;8.12;100.00
10638;BME280;47007;49.252;8.904;2023-04-07T03:52:04;99663.16;;;8.13;100.00
10638;BME280;47007;49.252;8.904;2023-04-07T03:52:46;99656.06;;;8.13;100.00
10638;BME280;47007;49.252;8.904;2023-04-07T03:53:36;99662.97;;;8.14;100.00
10638;BME280;47007;49.252;8.904;2023-04-07T03:54:30;99664.63;;;8.15;100.00
10638;BME280;47007;49.252;8.904;2023-04-07T03:55:12;99651.28;;;8.09;100.00
10638;BME280;47007;49.252;8.904;2023-04-07T03:55:54;99660.81;;;8.18;100.00
10638;BME280;47007;49.252;8.904;2023-04-07T03:56:56;99662.13;;;8.22;100.00
10638;BME280;47007;49.252;8.904;2023-04-07T03:57:38;99663.75;;;8.23;100.00
10638;BME280;47007;49.252;8.904;2023-04-07T03:58:20;99670.53;;;8.17;100.00
10638;BME280;47007;49.252;8.904;2023-04-07T03:59:02;99656.06;;;8.13;100.00
10638;BME280;47007;49.252;8.904;2023-04-07T03:59:49;99662.31;;;8.12;100.00
10638;BME280;47007;49.252;8.904;2023-04-07T04:00:32;99653.09;;;8.08;100.00